sensor_id;sensor_type;location;lat;lon;timestamp;P1;durP1;ratioP1;P2;durP2;ratioP2
5646;SDS011;2845;48.626;9.362;2023-09-30T00:01:35;9.98;;;2.58;;
5646;SDS011;2845;48.626;9.362;2023-09-30T00:04:09;7.18;;;2.00;;
5646;SDS011;2845;48.626;9.362;2023-09-30T00:06:43;9.45;;;2.20;;
5646;SDS011;2845;48.626;9.362;2023-09-30T00:09:18;7.90;;;2.20;;
5646;SDS011;2845;48.626;9.362;2023-09-30T00:11:52;8.15;;;2.10;;
5646;SDS011;2845;48.626;9.362;2023-09-30T00:14:29;8.10;;;2.67;;
5646;SDS011;2845;48.626;9.362;2023-09-30T00:17:04;6.68;;;1.75;;
5646;SDS011;2845;48.626;9.362;2023-09-30T00:19:39;10.38;;;2.30;;
5646;SDS011;2845;48.626;9.362;2023-09-30T00:22:14;10.63;;;2.60;;
5646;SDS011;2845;48.626;9.362;2023-09-30T00:24:48;8.15;;;2.28;;
5646;SDS011;2845;48.626;9.362;2023-09-30T00:27:23;8.75;;;2.20;;
5646;SDS011;2845;48.626;9.362;2023-09-30T00:29:58;6.50;;;2.15;;
5646;SDS011;2845;48.626;9.362;2023-09-30T00:32:36;7.30;;;2.78;;
5646;SDS011;2845;48.626;9.362;2023-09-30T00:35:11;6.63;;;2.17;;
5646;SDS011;2845;48.626;9.362;2023-09-30T00:37:46;9.35;;;2.63;;
5646;SDS011;2845;48.626;9.362;2023-09-30T00:40:20;7.45;;;2.25;;
5646;SDS011;2845;48.626;9.362;2023-09-30T00:42:54;7.45;;;2.08;;
5646;SDS011;2845;48.626;9.362;2023-09-30T00:45:30;6.93;;;1.88;;
5646;SDS011;2845;48.626;9.362;2023-09-30T00:48:05;6.95;;;2.25;;
5646;SDS011;2845;48.626;9.362;2023-09-30T00:50:40;9.07;;;2.25;;
5646;SDS011;2845;48.626;9.362;2023-09-30T00:53:15;9.13;;;2.17;;
5646;SDS011;2845;48.626;9.362;2023-09-30T00:55:50;8.30;;;1.65;;
5646;SDS011;2845;48.626;9.362;2023-09-30T00:58:28;9.18;;;1.80;;
5646;SDS011;2845;48.626;9.362;2023-09-30T01:01:05;4.70;;;1.33;;
5646;SDS011;2845;48.626;9.362;2023-09-30T01:03:42;7.88;;;2.13;;
5646;SDS011;2845;48.626;9.362;2023-09-30T01:06:17;7.53;;;1.83;;
5646;SDS011;2845;48.626;9.362;2023-09-30T01:08:52;6.13;;;1.98;;
5646;SDS011;2845;48.626;9.362;2023-09-30T01:11:26;9.18;;;1.90;;
5646;SDS011;2845;48.626;9.362;2023-09-30T01:14:01;6.38;;;1.60;;
5646;SDS011;2845;48.626;9.362;2023-09-30T01:16:36;5.70;;;1.65;;
5646;SDS011;2845;48.626;9.362;2023-09-30T01:19:11;4.40;;;1.67;;
5646;SDS011;2845;48.626;9.362;2023-09-30T01:21:46;8.43;;;1.73;;
5646;SDS011;2845;48.626;9.362;2023-09-30T01:24:21;5.47;;;1.60;;
5646;SDS011;2845;48.626;9.362;2023-09-30T01:26:55;6.93;;;1.88;;
5646;SDS011;2845;48.626;9.362;2023-09-30T01:29:31;6.22;;;1.70;;
5646;SDS011;2845;48.626;9.362;2023-09-30T01:32:05;4.70;;;1.35;;
5646;SDS011;2845;48.626;9.362;2023-09-30T01:34:41;6.40;;;2.10;;
5646;SDS011;2845;48.626;9.362;2023-09-30T01:37:17;5.65;;;1.70;;
5646;SDS011;2845;48.626;9.362;2023-09-30T01:39:52;5.78;;;1.50;;
5646;SDS011;2845;48.626;9.362;2023-09-30T01:42:27;5.95;;;1.60;;
5646;SDS011;2845;48.626;9.362;2023-09-30T01:45:02;5.63;;;1.63;;
5646;SDS011;2845;48.626;9.362;2023-09-30T01:47:38;4.93;;;1.52;;
5646;SDS011;2845;48.626;9.362;2023-09-30T01:50:12;6.65;;;1.63;;
5646;SDS011;2845;48.626;9.362;2023-09-30T01:52:48;3.28;;;1.23;;
5646;SDS011;2845;48.626;9.362;2023-09-30T01:55:23;6.63;;;1.75;;
5646;SDS011;2845;48.626;9.362;2023-09-30T01:57:58;5.32;;;1.40;;
5646;SDS011;2845;48.626;9.362;2023-09-30T02:00:36;6.40;;;1.60;;
5646;SDS011;2845;48.626;9.362;2023-09-30T02:03:11;6.55;;;2.28;;
5646;SDS011;2845;48.626;9.362;2023-09-30T02:05:45;5.78;;;1.90;;
5646;SDS011;2845;48.626;9.362;2023-09-30T02:08:21;6.70;;;1.95;;
5646;SDS011;2845;48.626;9.362;2023-09-30T02:10:55;4.55;;;1.33;;
5646;SDS011;2845;48.626;9.362;2023-09-30T02:13:31;5.93;;;1.45;;
5646;SDS011;2845;48.626;9.362;2023-09-30T02:16:11;5.00;;;1.30;;
5646;SDS011;2845;48.626;9.362;2023-09-30T02:18:49;5.00;;;1.48;;
5646;SDS011;2845;48.626;9.362;2023-09-30T02:21:24;6.97;;;1.90;;
5646;SDS011;2845;48.626;9.362;2023-09-30T02:24:01;4.55;;;1.58;;
5646;SDS011;2845;48.626;9.362;2023-09-30T02:26:40;5.72;;;2.05;;
5646;SDS011;2845;48.626;9.362;2023-09-30T02:29:15;6.82;;;1.95;;
5646;SDS011;2845;48.626;9.362;2023-09-30T02:31:50;6.07;;;1.90;;
5646;SDS011;2845;48.626;9.362;2023-09-30T02:34:27;6.00;;;1.60;;
5646;SDS011;2845;48.626;9.362;2023-09-30T02:37:05;8.25;;;2.00;;
5646;SDS011;2845;48.626;9.362;2023-09-30T02:39:41;5.07;;;1.70;;
5646;SDS011;2845;48.626;9.362;2023-09-30T02:42:16;6.68;;;2.10;;
5646;SDS011;2845;48.626;9.362;2023-09-30T02:44:51;7.35;;;2.10;;
5646;SDS011;2845;48.626;9.362;2023-09-30T02:47:25;6.22;;;1.67;;
5646;SDS011;2845;48.626;9.362;2023-09-30T02:50:02;7.45;;;2.10;;
5646;SDS011;2845;48.626;9.362;2023-09-30T02:52:43;9.35;;;2.10;;
5646;SDS011;2845;48.626;9.362;2023-09-30T02:55:23;8.07;;;1.98;;
5646;SDS011;2845;48.626;9.362;2023-09-30T02:57:57;8.52;;;1.88;;
5646;SDS011;2845;48.626;9.362;2023-09-30T03:00:33;7.38;;;2.00;;
5646;SDS011;2845;48.626;9.362;2023-09-30T03:03:08;6.63;;;1.92;;
5646;SDS011;2845;48.626;9.362;2023-09-30T03:05:42;6.65;;;2.08;;
5646;SDS011;2845;48.626;9.362;2023-09-30T03:08:17;4.82;;;1.63;;
5646;SDS011;2845;48.626;9.362;2023-09-30T03:10:54;5.63;;;2.03;;
5646;SDS011;2845;48.626;9.362;2023-09-30T03:13:28;8.73;;;1.95;;
5646;SDS011;2845;48.626;9.362;2023-09-30T03:16:03;7.18;;;1.90;;
5646;SDS011;2845;48.626;9.362;2023-09-30T03:18:38;4.95;;;1.40;;
5646;SDS011;2845;48.626;9.362;2023-09-30T03:21:13;4.10;;;1.25;;
5646;SDS011;2845;48.626;9.362;2023-09-30T03:23:48;5.53;;;1.55;;
5646;SDS011;2845;48.626;9.362;2023-09-30T03:26:24;5.28;;;1.85;;
5646;SDS011;2845;48.626;9.362;2023-09-30T03:29:00;6.00;;;1.70;;
5646;SDS011;2845;48.626;9.362;2023-09-30T03:31:36;6.72;;;1.65;;
5646;SDS011;2845;48.626;9.362;2023-09-30T03:34:10;5.50;;;1.75;;
5646;SDS011;2845;48.626;9.362;2023-09-30T03:36:46;6.53;;;1.73;;
5646;SDS011;2845;48.626;9.362;2023-09-30T03:39:21;6.07;;;1.27;;
5646;SDS011;2845;48.626;9.362;2023-09-30T03:42:02;6.30;;;1.80;;
5646;SDS011;2845;48.626;9.362;2023-09-30T03:44:37;6.20;;;1.52;;
5646;SDS011;2845;48.626;9.362;2023-09-30T03:47:12;5.93;;;2.10;;
5646;SDS011;2845;48.626;9.362;2023-09-30T03:49:46;6.50;;;1.92;;
5646;SDS011;2845;48.626;9.362;2023-09-30T03:52:20;5.03;;;1.42;;
5646;SDS011;2845;48.626;9.362;2023-09-30T03:54:58;5.70;;;1.70;;
5646;SDS011;2845;48.626;9.362;2023-09-30T03:57:39;6.28;;;1.88;;
5646;SDS011;2845;48.626;9.362;2023-09-30T04:00:14;6.97;;;2.17;;
5646;SDS011;2845;48.626;9.362;2023-09-30T04:02:53;6.00;;;1.90;;
5646;SDS011;2845;48.626;9.362;2023-09-30T04:05:31;8.35;;;1.65;;
5646;SDS011;2845;48.626;9.362;2023-09-30T04:08:09;7.47;;;2.03;;
5646;SDS011;2845;48.626;9.362;2023-09-30T04:10:45;5.82;;;1.42;;
5646;SDS011;2845;48.626;9.362;2023-09-30T04:13:20;6.07;;;1.63;;
5646;SDS011;2845;48.626;9.362;2023-09-30T04:15:54;4.88;;;1.45;;
5646;SDS011;2845;48.626;9.362;2023-09-30T04:18:30;6.78;;;1.60;;
5646;SDS011;2845;48.626;9.362;2023-09-30T04:21:06;4.47;;;1.55;;
5646;SDS011;2845;48.626;9.362;2023-09-30T04:23:41;5.13;;;1.50;;
5646;SDS011;2845;48.626;9.362;2023-09-30T04:26:16;3.58;;;1.20;;
5646;SDS011;2845;48.626;9.362;2023-09-30T04:28:51;5.75;;;1.48;;
5646;SDS011;2845;48.626;9.362;2023-09-30T04:31:27;5.20;;;1.60;;
5646;SDS011;2845;48.626;9.362;2023-09-30T04:34:01;7.55;;;2.30;;
5646;SDS011;2845;48.626;9.362;2023-09-30T04:36:37;4.55;;;1.80;;
5646;SDS011;2845;48.626;9.362;2023-09-30T04:39:12;7.57;;;1.63;;
5646;SDS011;2845;48.626;9.362;2023-09-30T04:41:47;4.75;;;1.48;;
5646;SDS011;2845;48.626;9.362;2023-09-30T04:44:24;4.97;;;1.63;;
5646;SDS011;2845;48.626;9.362;2023-09-30T04:47:01;4.85;;;1.65;;
5646;SDS011;2845;48.626;9.362;2023-09-30T04:49:37;5.50;;;1.67;;
5646;SDS011;2845;48.626;9.362;2023-09-30T04:52:12;5.60;;;1.45;;
5646;SDS011;2845;48.626;9.362;2023-09-30T04:54:46;5.78;;;1.45;;
5646;SDS011;2845;48.626;9.362;2023-09-30T04:57:22;5.68;;;1.60;;
5646;SDS011;2845;48.626;9.362;2023-09-30T04:59:58;6.10;;;1.83;;
5646;SDS011;2845;48.626;9.362;2023-09-30T05:02:32;5.72;;;1.50;;
5646;SDS011;2845;48.626;9.362;2023-09-30T05:05:07;7.72;;;2.20;;
5646;SDS011;2845;48.626;9.362;2023-09-30T05:07:42;5.80;;;1.88;;
5646;SDS011;2845;48.626;9.362;2023-09-30T05:10:18;5.35;;;1.70;;
5646;SDS011;2845;48.626;9.362;2023-09-30T05:12:52;5.57;;;1.55;;
5646;SDS011;2845;48.626;9.362;2023-09-30T05:15:28;6.47;;;1.75;;
5646;SDS011;2845;48.626;9.362;2023-09-30T05:20:42;4.78;;;1.42;;
5646;SDS011;2845;48.626;9.362;2023-09-30T05:23:17;4.22;;;1.60;;
5646;SDS011;2845;48.626;9.362;2023-09-30T05:25:51;4.63;;;1.30;;
5646;SDS011;2845;48.626;9.362;2023-09-30T05:28:26;6.32;;;1.88;;
5646;SDS011;2845;48.626;9.362;2023-09-30T05:31:02;3.90;;;1.10;;
5646;SDS011;2845;48.626;9.362;2023-09-30T05:33:44;6.28;;;1.50;;
5646;SDS011;2845;48.626;9.362;2023-09-30T05:36:23;6.63;;;1.58;;
5646;SDS011;2845;48.626;9.362;2023-09-30T05:38:57;5.55;;;1.75;;
5646;SDS011;2845;48.626;9.362;2023-09-30T05:41:32;7.63;;;1.80;;
5646;SDS011;2845;48.626;9.362;2023-09-30T05:44:09;4.50;;;1.60;;
5646;SDS011;2845;48.626;9.362;2023-09-30T05:46:45;6.13;;;2.08;;
5646;SDS011;2845;48.626;9.362;2023-09-30T05:49:19;8.23;;;2.10;;
5646;SDS011;2845;48.626;9.362;2023-09-30T05:51:54;3.83;;;1.33;;
5646;SDS011;2845;48.626;9.362;2023-09-30T05:54:28;5.50;;;1.77;;
5646;SDS011;2845;48.626;9.362;2023-09-30T05:57:03;6.32;;;1.55;;
5646;SDS011;2845;48.626;9.362;2023-09-30T05:59:38;5.55;;;1.30;;
5646;SDS011;2845;48.626;9.362;2023-09-30T06:02:15;4.13;;;1.40;;
5646;SDS011;2845;48.626;9.362;2023-09-30T06:04:49;5.50;;;1.60;;
5646;SDS011;2845;48.626;9.362;2023-09-30T06:07:25;7.72;;;2.00;;
5646;SDS011;2845;48.626;9.362;2023-09-30T06:10:00;6.00;;;1.90;;
5646;SDS011;2845;48.626;9.362;2023-09-30T06:12:38;5.22;;;1.75;;
5646;SDS011;2845;48.626;9.362;2023-09-30T06:15:14;5.80;;;1.88;;
5646;SDS011;2845;48.626;9.362;2023-09-30T06:17:56;5.10;;;2.05;;
5646;SDS011;2845;48.626;9.362;2023-09-30T06:20:33;5.72;;;1.35;;
5646;SDS011;2845;48.626;9.362;2023-09-30T06:23:07;2.88;;;1.10;;
5646;SDS011;2845;48.626;9.362;2023-09-30T06:25:43;4.80;;;1.40;;
5646;SDS011;2845;48.626;9.362;2023-09-30T06:28:17;6.45;;;1.95;;
5646;SDS011;2845;48.626;9.362;2023-09-30T06:30:58;5.82;;;1.75;;
5646;SDS011;2845;48.626;9.362;2023-09-30T06:33:34;4.97;;;1.25;;
5646;SDS011;2845;48.626;9.362;2023-09-30T06:36:11;5.05;;;1.27;;
5646;SDS011;2845;48.626;9.362;2023-09-30T06:38:46;6.88;;;1.48;;
5646;SDS011;2845;48.626;9.362;2023-09-30T06:41:23;4.88;;;1.60;;
5646;SDS011;2845;48.626;9.362;2023-09-30T06:43:58;5.82;;;1.80;;
5646;SDS011;2845;48.626;9.362;2023-09-30T06:46:32;4.20;;;1.35;;
5646;SDS011;2845;48.626;9.362;2023-09-30T06:49:08;6.57;;;1.23;;
5646;SDS011;2845;48.626;9.362;2023-09-30T06:51:43;3.88;;;1.45;;
5646;SDS011;2845;48.626;9.362;2023-09-30T06:54:17;5.30;;;1.75;;
5646;SDS011;2845;48.626;9.362;2023-09-30T06:56:51;4.88;;;1.52;;
5646;SDS011;2845;48.626;9.362;2023-09-30T06:59:28;5.28;;;1.45;;
5646;SDS011;2845;48.626;9.362;2023-09-30T07:02:03;3.97;;;1.30;;
5646;SDS011;2845;48.626;9.362;2023-09-30T07:04:40;5.20;;;1.77;;
5646;SDS011;2845;48.626;9.362;2023-09-30T07:07:14;5.57;;;1.83;;
5646;SDS011;2845;48.626;9.362;2023-09-30T07:09:48;4.88;;;1.45;;
5646;SDS011;2845;48.626;9.362;2023-09-30T07:12:23;5.20;;;1.70;;
5646;SDS011;2845;48.626;9.362;2023-09-30T07:14:57;5.05;;;1.90;;
5646;SDS011;2845;48.626;9.362;2023-09-30T07:17:32;5.65;;;1.58;;
5646;SDS011;2845;48.626;9.362;2023-09-30T07:20:09;6.97;;;1.70;;
5646;SDS011;2845;48.626;9.362;2023-09-30T07:22:43;5.63;;;1.40;;
5646;SDS011;2845;48.626;9.362;2023-09-30T07:28:10;5.75;;;1.63;;
5646;SDS011;2845;48.626;9.362;2023-09-30T07:30:45;4.03;;;1.23;;
5646;SDS011;2845;48.626;9.362;2023-09-30T07:33:19;3.60;;;1.52;;
5646;SDS011;2845;48.626;9.362;2023-09-30T07:35:55;6.00;;;1.75;;
5646;SDS011;2845;48.626;9.362;2023-09-30T07:38:30;2.88;;;1.38;;
5646;SDS011;2845;48.626;9.362;2023-09-30T07:41:04;6.35;;;1.73;;
5646;SDS011;2845;48.626;9.362;2023-09-30T07:43:45;4.32;;;1.50;;
5646;SDS011;2845;48.626;9.362;2023-09-30T07:46:19;3.95;;;1.38;;
5646;SDS011;2845;48.626;9.362;2023-09-30T07:48:54;4.68;;;1.60;;
5646;SDS011;2845;48.626;9.362;2023-09-30T07:51:30;3.80;;;1.30;;
5646;SDS011;2845;48.626;9.362;2023-09-30T07:54:06;3.33;;;1.20;;
5646;SDS011;2845;48.626;9.362;2023-09-30T07:57:00;6.13;;;1.80;;
5646;SDS011;2845;48.626;9.362;2023-09-30T07:59:35;2.65;;;1.17;;
5646;SDS011;2845;48.626;9.362;2023-09-30T08:02:09;4.13;;;1.70;;
5646;SDS011;2845;48.626;9.362;2023-09-30T08:04:44;4.10;;;1.60;;
5646;SDS011;2845;48.626;9.362;2023-09-30T08:07:21;2.53;;;1.25;;
5646;SDS011;2845;48.626;9.362;2023-09-30T08:09:55;4.18;;;1.30;;
5646;SDS011;2845;48.626;9.362;2023-09-30T08:12:30;5.25;;;1.80;;
5646;SDS011;2845;48.626;9.362;2023-09-30T08:15:07;2.85;;;1.20;;
5646;SDS011;2845;48.626;9.362;2023-09-30T08:17:45;3.40;;;1.67;;
5646;SDS011;2845;48.626;9.362;2023-09-30T08:20:19;3.30;;;1.20;;
5646;SDS011;2845;48.626;9.362;2023-09-30T08:22:55;3.58;;;1.55;;
5646;SDS011;2845;48.626;9.362;2023-09-30T08:25:29;5.35;;;1.38;;
5646;SDS011;2845;48.626;9.362;2023-09-30T08:28:04;4.97;;;1.67;;
5646;SDS011;2845;48.626;9.362;2023-09-30T08:30:39;2.92;;;1.20;;
5646;SDS011;2845;48.626;9.362;2023-09-30T08:33:13;3.13;;;1.40;;
5646;SDS011;2845;48.626;9.362;2023-09-30T08:35:47;5.32;;;1.52;;
5646;SDS011;2845;48.626;9.362;2023-09-30T08:38:24;3.63;;;1.60;;
5646;SDS011;2845;48.626;9.362;2023-09-30T08:40:59;1.90;;;1.10;;
5646;SDS011;2845;48.626;9.362;2023-09-30T08:43:36;4.15;;;1.50;;
5646;SDS011;2845;48.626;9.362;2023-09-30T08:46:12;2.67;;;1.13;;
5646;SDS011;2845;48.626;9.362;2023-09-30T08:48:49;3.70;;;1.70;;
5646;SDS011;2845;48.626;9.362;2023-09-30T08:51:23;3.55;;;1.45;;
5646;SDS011;2845;48.626;9.362;2023-09-30T08:53:59;4.72;;;1.35;;
5646;SDS011;2845;48.626;9.362;2023-09-30T08:56:47;3.60;;;1.30;;
5646;SDS011;2845;48.626;9.362;2023-09-30T08:59:22;3.60;;;1.25;;
5646;SDS011;2845;48.626;9.362;2023-09-30T09:01:57;3.80;;;1.33;;
5646;SDS011;2845;48.626;9.362;2023-09-30T09:04:32;3.25;;;1.15;;
5646;SDS011;2845;48.626;9.362;2023-09-30T09:07:10;2.60;;;1.25;;
5646;SDS011;2845;48.626;9.362;2023-09-30T09:12:42;3.70;;;1.25;;
5646;SDS011;2845;48.626;9.362;2023-09-30T09:15:28;2.83;;;1.08;;
5646;SDS011;2845;48.626;9.362;2023-09-30T09:18:03;3.25;;;1.30;;
5646;SDS011;2845;48.626;9.362;2023-09-30T09:20:41;3.17;;;1.20;;
5646;SDS011;2845;48.626;9.362;2023-09-30T09:23:15;2.95;;;1.25;;
5646;SDS011;2845;48.626;9.362;2023-09-30T09:25:51;3.13;;;1.17;;
5646;SDS011;2845;48.626;9.362;2023-09-30T09:28:33;3.53;;;1.45;;
5646;SDS011;2845;48.626;9.362;2023-09-30T09:31:21;3.63;;;1.38;;
5646;SDS011;2845;48.626;9.362;2023-09-30T09:33:56;3.42;;;1.08;;
5646;SDS011;2845;48.626;9.362;2023-09-30T09:36:41;4.90;;;1.23;;
5646;SDS011;2845;48.626;9.362;2023-09-30T09:39:20;3.70;;;1.40;;
5646;SDS011;2845;48.626;9.362;2023-09-30T09:42:05;4.55;;;1.58;;
5646;SDS011;2845;48.626;9.362;2023-09-30T09:44:42;3.63;;;1.48;;
5646;SDS011;2845;48.626;9.362;2023-09-30T09:47:18;3.75;;;1.55;;
5646;SDS011;2845;48.626;9.362;2023-09-30T09:49:55;5.25;;;1.30;;
5646;SDS011;2845;48.626;9.362;2023-09-30T09:52:33;4.32;;;1.88;;
5646;SDS011;2845;48.626;9.362;2023-09-30T09:55:10;3.45;;;1.52;;
5646;SDS011;2845;48.626;9.362;2023-09-30T09:57:47;4.85;;;1.70;;
5646;SDS011;2845;48.626;9.362;2023-09-30T10:00:24;3.33;;;1.52;;
5646;SDS011;2845;48.626;9.362;2023-09-30T10:03:02;4.20;;;1.63;;
5646;SDS011;2845;48.626;9.362;2023-09-30T10:05:38;4.63;;;1.48;;
5646;SDS011;2845;48.626;9.362;2023-09-30T10:08:14;5.35;;;1.67;;
5646;SDS011;2845;48.626;9.362;2023-09-30T10:10:51;4.30;;;1.55;;
5646;SDS011;2845;48.626;9.362;2023-09-30T10:16:49;3.92;;;1.50;;
5646;SDS011;2845;48.626;9.362;2023-09-30T10:19:24;6.13;;;1.85;;
5646;SDS011;2845;48.626;9.362;2023-09-30T10:24:57;5.68;;;1.60;;
5646;SDS011;2845;48.626;9.362;2023-09-30T10:27:33;5.40;;;1.50;;
5646;SDS011;2845;48.626;9.362;2023-09-30T10:30:13;4.20;;;1.80;;
5646;SDS011;2845;48.626;9.362;2023-09-30T10:33:07;5.25;;;2.05;;
5646;SDS011;2845;48.626;9.362;2023-09-30T10:35:49;5.20;;;1.58;;
5646;SDS011;2845;48.626;9.362;2023-09-30T10:38:38;4.93;;;1.90;;
5646;SDS011;2845;48.626;9.362;2023-09-30T10:44:34;5.30;;;1.70;;
5646;SDS011;2845;48.626;9.362;2023-09-30T10:53:25;4.60;;;1.60;;
5646;SDS011;2845;48.626;9.362;2023-09-30T10:56:00;7.70;;;2.65;;
5646;SDS011;2845;48.626;9.362;2023-09-30T10:58:39;7.22;;;2.95;;
5646;SDS011;2845;48.626;9.362;2023-09-30T11:01:19;8.90;;;2.65;;
5646;SDS011;2845;48.626;9.362;2023-09-30T11:03:59;7.78;;;2.38;;
5646;SDS011;2845;48.626;9.362;2023-09-30T11:06:39;5.25;;;2.17;;
5646;SDS011;2845;48.626;9.362;2023-09-30T11:09:15;5.40;;;2.28;;
5646;SDS011;2845;48.626;9.362;2023-09-30T11:11:52;6.38;;;2.47;;
5646;SDS011;2845;48.626;9.362;2023-09-30T11:14:28;5.03;;;2.10;;
5646;SDS011;2845;48.626;9.362;2023-09-30T11:17:04;7.68;;;2.20;;
5646;SDS011;2845;48.626;9.362;2023-09-30T11:19:47;6.97;;;2.42;;
5646;SDS011;2845;48.626;9.362;2023-09-30T11:22:22;7.80;;;2.55;;
5646;SDS011;2845;48.626;9.362;2023-09-30T11:24:57;6.95;;;2.72;;
5646;SDS011;2845;48.626;9.362;2023-09-30T11:27:47;7.07;;;2.35;;
5646;SDS011;2845;48.626;9.362;2023-09-30T11:30:52;7.13;;;3.08;;
5646;SDS011;2845;48.626;9.362;2023-09-30T11:33:33;8.85;;;2.33;;
5646;SDS011;2845;48.626;9.362;2023-09-30T11:36:24;5.95;;;2.40;;
5646;SDS011;2845;48.626;9.362;2023-09-30T11:38:58;5.38;;;2.08;;
5646;SDS011;2845;48.626;9.362;2023-09-30T11:41:38;5.40;;;2.08;;
5646;SDS011;2845;48.626;9.362;2023-09-30T11:44:14;7.47;;;2.65;;
5646;SDS011;2845;48.626;9.362;2023-09-30T11:46:50;7.97;;;2.30;;
5646;SDS011;2845;48.626;9.362;2023-09-30T11:49:27;6.55;;;2.50;;
5646;SDS011;2845;48.626;9.362;2023-09-30T11:52:06;7.95;;;2.92;;
5646;SDS011;2845;48.626;9.362;2023-09-30T11:54:46;9.27;;;2.85;;
5646;SDS011;2845;48.626;9.362;2023-09-30T11:57:20;6.93;;;2.47;;
5646;SDS011;2845;48.626;9.362;2023-09-30T11:59:55;8.65;;;2.90;;
5646;SDS011;2845;48.626;9.362;2023-09-30T12:02:29;7.90;;;2.58;;
5646;SDS011;2845;48.626;9.362;2023-09-30T12:05:04;6.90;;;2.40;;
5646;SDS011;2845;48.626;9.362;2023-09-30T12:07:45;8.13;;;2.40;;
5646;SDS011;2845;48.626;9.362;2023-09-30T12:10:19;8.32;;;2.85;;
5646;SDS011;2845;48.626;9.362;2023-09-30T12:12:54;7.65;;;3.13;;
5646;SDS011;2845;48.626;9.362;2023-09-30T12:15:29;8.80;;;3.13;;
5646;SDS011;2845;48.626;9.362;2023-09-30T12:18:04;8.48;;;2.95;;
5646;SDS011;2845;48.626;9.362;2023-09-30T12:20:39;8.00;;;2.22;;
5646;SDS011;2845;48.626;9.362;2023-09-30T12:23:16;7.28;;;2.58;;
5646;SDS011;2845;48.626;9.362;2023-09-30T12:25:52;6.13;;;2.50;;
5646;SDS011;2845;48.626;9.362;2023-09-30T12:28:45;7.85;;;2.78;;
5646;SDS011;2845;48.626;9.362;2023-09-30T12:31:21;7.50;;;2.58;;
5646;SDS011;2845;48.626;9.362;2023-09-30T12:33:59;5.97;;;2.25;;
5646;SDS011;2845;48.626;9.362;2023-09-30T12:36:34;9.20;;;3.33;;
5646;SDS011;2845;48.626;9.362;2023-09-30T12:39:11;8.48;;;2.55;;
5646;SDS011;2845;48.626;9.362;2023-09-30T12:41:49;7.40;;;2.47;;
5646;SDS011;2845;48.626;9.362;2023-09-30T12:44:23;7.55;;;2.50;;
5646;SDS011;2845;48.626;9.362;2023-09-30T12:46:58;7.40;;;2.90;;
5646;SDS011;2845;48.626;9.362;2023-09-30T12:49:32;8.50;;;2.40;;
5646;SDS011;2845;48.626;9.362;2023-09-30T12:52:07;7.38;;;2.33;;
5646;SDS011;2845;48.626;9.362;2023-09-30T12:54:46;11.10;;;2.85;;
5646;SDS011;2845;48.626;9.362;2023-09-30T12:57:21;10.23;;;2.75;;
5646;SDS011;2845;48.626;9.362;2023-09-30T12:59:56;7.13;;;2.45;;
5646;SDS011;2845;48.626;9.362;2023-09-30T13:02:30;8.95;;;2.55;;
5646;SDS011;2845;48.626;9.362;2023-09-30T13:05:06;6.53;;;2.40;;
5646;SDS011;2845;48.626;9.362;2023-09-30T13:07:41;9.85;;;3.00;;
5646;SDS011;2845;48.626;9.362;2023-09-30T13:10:17;8.05;;;2.88;;
5646;SDS011;2845;48.626;9.362;2023-09-30T13:12:51;7.57;;;3.03;;
5646;SDS011;2845;48.626;9.362;2023-09-30T13:15:31;6.20;;;2.50;;
5646;SDS011;2845;48.626;9.362;2023-09-30T13:18:06;9.02;;;2.72;;
5646;SDS011;2845;48.626;9.362;2023-09-30T13:20:43;7.65;;;2.53;;
5646;SDS011;2845;48.626;9.362;2023-09-30T13:23:18;6.38;;;2.33;;
5646;SDS011;2845;48.626;9.362;2023-09-30T13:25:54;6.75;;;1.95;;
5646;SDS011;2845;48.626;9.362;2023-09-30T13:28:29;9.68;;;2.72;;
5646;SDS011;2845;48.626;9.362;2023-09-30T13:31:03;5.38;;;2.50;;
5646;SDS011;2845;48.626;9.362;2023-09-30T13:33:37;7.72;;;2.78;;
5646;SDS011;2845;48.626;9.362;2023-09-30T13:36:12;6.78;;;2.72;;
5646;SDS011;2845;48.626;9.362;2023-09-30T13:38:47;7.35;;;2.30;;
5646;SDS011;2845;48.626;9.362;2023-09-30T13:41:23;8.07;;;2.40;;
5646;SDS011;2845;48.626;9.362;2023-09-30T13:43:59;6.30;;;2.30;;
5646;SDS011;2845;48.626;9.362;2023-09-30T13:46:33;6.63;;;2.25;;
5646;SDS011;2845;48.626;9.362;2023-09-30T13:49:08;5.50;;;1.92;;
5646;SDS011;2845;48.626;9.362;2023-09-30T13:51:42;6.63;;;2.45;;
5646;SDS011;2845;48.626;9.362;2023-09-30T13:54:17;6.28;;;2.42;;
5646;SDS011;2845;48.626;9.362;2023-09-30T13:56:52;6.90;;;2.60;;
5646;SDS011;2845;48.626;9.362;2023-09-30T13:59:27;7.28;;;2.40;;
5646;SDS011;2845;48.626;9.362;2023-09-30T14:02:01;7.75;;;2.42;;
5646;SDS011;2845;48.626;9.362;2023-09-30T14:04:36;7.82;;;2.60;;
5646;SDS011;2845;48.626;9.362;2023-09-30T14:07:10;9.38;;;2.65;;
5646;SDS011;2845;48.626;9.362;2023-09-30T14:09:46;7.53;;;2.35;;
5646;SDS011;2845;48.626;9.362;2023-09-30T14:12:22;7.18;;;2.55;;
5646;SDS011;2845;48.626;9.362;2023-09-30T14:14:56;9.27;;;2.72;;
5646;SDS011;2845;48.626;9.362;2023-09-30T14:17:30;6.28;;;2.33;;
5646;SDS011;2845;48.626;9.362;2023-09-30T14:20:08;7.18;;;2.70;;
5646;SDS011;2845;48.626;9.362;2023-09-30T14:22:45;6.75;;;2.20;;
5646;SDS011;2845;48.626;9.362;2023-09-30T14:25:20;7.03;;;2.58;;
5646;SDS011;2845;48.626;9.362;2023-09-30T14:27:55;8.70;;;2.60;;
5646;SDS011;2845;48.626;9.362;2023-09-30T14:30:32;7.28;;;2.17;;
5646;SDS011;2845;48.626;9.362;2023-09-30T14:33:06;7.25;;;2.35;;
5646;SDS011;2845;48.626;9.362;2023-09-30T14:35:41;8.82;;;2.78;;
5646;SDS011;2845;48.626;9.362;2023-09-30T14:38:16;7.72;;;2.40;;
5646;SDS011;2845;48.626;9.362;2023-09-30T14:40:50;7.85;;;2.20;;
5646;SDS011;2845;48.626;9.362;2023-09-30T14:43:26;5.22;;;2.00;;
5646;SDS011;2845;48.626;9.362;2023-09-30T14:46:00;5.07;;;2.00;;
5646;SDS011;2845;48.626;9.362;2023-09-30T14:48:35;5.30;;;2.05;;
5646;SDS011;2845;48.626;9.362;2023-09-30T14:51:09;7.00;;;2.72;;
5646;SDS011;2845;48.626;9.362;2023-09-30T14:53:45;6.35;;;2.00;;
5646;SDS011;2845;48.626;9.362;2023-09-30T14:56:19;5.43;;;2.15;;
5646;SDS011;2845;48.626;9.362;2023-09-30T14:58:57;6.00;;;2.20;;
5646;SDS011;2845;48.626;9.362;2023-09-30T15:01:32;6.40;;;2.15;;
5646;SDS011;2845;48.626;9.362;2023-09-30T15:04:07;5.97;;;2.30;;
5646;SDS011;2845;48.626;9.362;2023-09-30T15:06:42;6.63;;;2.20;;
5646;SDS011;2845;48.626;9.362;2023-09-30T15:09:18;4.82;;;2.00;;
5646;SDS011;2845;48.626;9.362;2023-09-30T15:11:52;5.97;;;2.08;;
5646;SDS011;2845;48.626;9.362;2023-09-30T15:14:28;10.10;;;2.53;;
5646;SDS011;2845;48.626;9.362;2023-09-30T15:17:02;6.32;;;1.80;;
5646;SDS011;2845;48.626;9.362;2023-09-30T15:19:37;7.07;;;2.30;;
5646;SDS011;2845;48.626;9.362;2023-09-30T15:22:11;6.30;;;1.90;;
5646;SDS011;2845;48.626;9.362;2023-09-30T15:24:47;6.97;;;2.40;;
5646;SDS011;2845;48.626;9.362;2023-09-30T15:27:22;6.45;;;1.95;;
5646;SDS011;2845;48.626;9.362;2023-09-30T15:29:59;5.97;;;2.28;;
5646;SDS011;2845;48.626;9.362;2023-09-30T15:32:34;6.13;;;2.50;;
5646;SDS011;2845;48.626;9.362;2023-09-30T15:35:09;6.45;;;1.95;;
5646;SDS011;2845;48.626;9.362;2023-09-30T15:37:44;6.85;;;2.55;;
5646;SDS011;2845;48.626;9.362;2023-09-30T15:40:19;6.00;;;2.20;;
5646;SDS011;2845;48.626;9.362;2023-09-30T15:42:57;7.15;;;2.47;;
5646;SDS011;2845;48.626;9.362;2023-09-30T15:45:32;6.45;;;2.60;;
5646;SDS011;2845;48.626;9.362;2023-09-30T15:48:10;5.40;;;2.15;;
5646;SDS011;2845;48.626;9.362;2023-09-30T15:50:48;6.18;;;2.15;;
5646;SDS011;2845;48.626;9.362;2023-09-30T15:53:22;7.38;;;2.45;;
5646;SDS011;2845;48.626;9.362;2023-09-30T15:55:57;7.32;;;2.70;;
5646;SDS011;2845;48.626;9.362;2023-09-30T15:58:31;6.75;;;2.58;;
5646;SDS011;2845;48.626;9.362;2023-09-30T16:01:07;5.30;;;2.03;;
5646;SDS011;2845;48.626;9.362;2023-09-30T16:03:47;6.93;;;2.50;;
5646;SDS011;2845;48.626;9.362;2023-09-30T16:06:21;8.27;;;2.60;;
5646;SDS011;2845;48.626;9.362;2023-09-30T16:08:56;7.40;;;2.47;;
5646;SDS011;2845;48.626;9.362;2023-09-30T16:11:31;6.03;;;2.28;;
5646;SDS011;2845;48.626;9.362;2023-09-30T16:14:05;4.88;;;2.15;;
5646;SDS011;2845;48.626;9.362;2023-09-30T16:16:41;6.05;;;2.08;;
5646;SDS011;2845;48.626;9.362;2023-09-30T16:19:16;5.82;;;2.13;;
5646;SDS011;2845;48.626;9.362;2023-09-30T16:21:53;8.13;;;2.53;;
5646;SDS011;2845;48.626;9.362;2023-09-30T16:24:28;7.30;;;2.15;;
5646;SDS011;2845;48.626;9.362;2023-09-30T16:27:03;7.32;;;2.38;;
5646;SDS011;2845;48.626;9.362;2023-09-30T16:29:40;8.15;;;2.15;;
5646;SDS011;2845;48.626;9.362;2023-09-30T16:32:17;5.55;;;1.95;;
5646;SDS011;2845;48.626;9.362;2023-09-30T16:34:52;6.85;;;2.30;;